sensor_id;sensor_type;location;lat;lon;timestamp;P1;P2;P0
79117;PMS7003;68523;51.336;-0.846;2023-04-06T00:00:33;8;8;
79117;PMS7003;68523;51.336;-0.846;2023-04-06T00:05:36;7;7;
79117;PMS7003;68523;51.336;-0.846;2023-04-06T00:11:00;5;5;
79117;PMS7003;68523;51.336;-0.846;2023-04-06T00:16:03;8;8;
79117;PMS7003;68523;51.336;-0.846;2023-04-06T00:21:34;13;9;
79117;PMS7003;68523;51.336;-0.846;2023-04-06T00:26:37;16;11;
79117;PMS7003;68523;51.336;-0.846;2023-04-06T00:32:01;12;11;
79117;PMS7003;68523;51.336;-0.846;2023-04-06T00:37:04;11;7;
79117;PMS7003;68523;51.336;-0.846;2023-04-06T00:42:33;10;7;
79117;PMS7003;68523;51.336;-0.846;2023-04-06T00:48:04;8;4;
79117;PMS7003;68523;51.336;-0.846;2023-04-06T00:53:34;14;11;
79117;PMS7003;68523;51.336;-0.846;2023-04-06T00:58:37;8;8;
79117;PMS7003;68523;51.336;-0.846;2023-04-06T01:04:01;12;12;
79117;PMS7003;68523;51.336;-0.846;2023-04-06T01:09:04;7;4;
79117;PMS7003;68523;51.336;-0.846;2023-04-06T01:14:34;7;7;
79117;PMS7003;68523;51.336;-0.846;2023-04-06T01:19:37;7;7;
79117;PMS7003;68523;51.336;-0.846;2023-04-06T01:25:01;5;5;
79117;PMS7003;68523;51.336;-0.846;2023-04-06T01:30:05;11;9;
79117;PMS7003;68523;51.336;-0.846;2023-04-06T01:35:35;7;3;
79117;PMS7003;68523;51.336;-0.846;2023-04-06T01:41:05;10;7;
79117;PMS7003;68523;51.336;-0.846;2023-04-06T01:46:34;3;3;
79117;PMS7003;68523;51.336;-0.846;2023-04-06T01:52:04;7;7;
79117;PMS7003;68523;51.336;-0.846;2023-04-06T01:57:33;3;3;
79117;PMS7003;68523;51.336;-0.846;2023-04-06T02:02:36;6;6;
79117;PMS7003;68523;51.336;-0.846;2023-04-06T02:08:01;4;3;
79117;PMS7003;68523;51.336;-0.846;2023-04-06T02:13:04;5;5;
79117;PMS7003;68523;51.336;-0.846;2023-04-06T02:18:33;6;6;
79117;PMS7003;68523;51.336;-0.846;2023-04-06T02:23:37;2;2;
79117;PMS7003;68523;51.336;-0.846;2023-04-06T02:29:00;5;5;
79117;PMS7003;68523;51.336;-0.846;2023-04-06T02:34:03;1;1;
79117;PMS7003;68523;51.336;-0.846;2023-04-06T02:39:33;7;4;
79117;PMS7003;68523;51.336;-0.846;2023-04-06T02:44:36;4;2;
79117;PMS7003;68523;51.336;-0.846;2023-04-06T02:50:05;5;5;
79117;PMS7003;68523;51.336;-0.846;2023-04-06T02:55:35;7;5;
79117;PMS7003;68523;51.336;-0.846;2023-04-06T03:01:05;4;3;
79117;PMS7003;68523;51.336;-0.846;2023-04-06T03:06:34;6;6;
79117;PMS7003;68523;51.336;-0.846;2023-04-06T03:11:37;10;7;
79117;PMS7003;68523;51.336;-0.846;2023-04-06T03:17:01;4;4;
79117;PMS7003;68523;51.336;-0.846;2023-04-06T03:22:04;7;5;
79117;PMS7003;68523;51.336;-0.846;2023-04-06T03:27:34;12;9;
79117;PMS7003;68523;51.336;-0.846;2023-04-06T03:32:37;10;10;
79117;PMS7003;68523;51.336;-0.846;2023-04-06T03:38:01;15;15;
79117;PMS7003;68523;51.336;-0.846;2023-04-06T03:43:04;10;10;
79117;PMS7003;68523;51.336;-0.846;2023-04-06T03:48:34;13;13;
79117;PMS7003;68523;51.336;-0.846;2023-04-06T03:53:37;5;5;
79117;PMS7003;68523;51.336;-0.846;2023-04-06T03:59:01;20;18;
79117;PMS7003;68523;51.336;-0.846;2023-04-06T04:04:04;10;9;
79117;PMS7003;68523;51.336;-0.846;2023-04-06T04:09:34;12;12;
79117;PMS7003;68523;51.336;-0.846;2023-04-06T04:14:37;7;7;
79117;PMS7003;68523;51.336;-0.846;2023-04-06T04:20:01;13;10;
79117;PMS7003;68523;51.336;-0.846;2023-04-06T04:25:04;16;9;
79117;PMS7003;68523;51.336;-0.846;2023-04-06T04:30:34;7;7;
79117;PMS7003;68523;51.336;-0.846;2023-04-06T04:36:04;7;7;
79117;PMS7003;68523;51.336;-0.846;2023-04-06T04:41:33;13;10;
79117;PMS7003;68523;51.336;-0.846;2023-04-06T04:46:36;10;10;
79117;PMS7003;68523;51.336;-0.846;2023-04-06T04:52:05;9;9;
79117;PMS7003;68523;51.336;-0.846;2023-04-06T04:57:35;10;10;
79117;PMS7003;68523;51.336;-0.846;2023-04-06T05:03:04;6;6;
79117;PMS7003;68523;51.336;-0.846;2023-04-06T05:08:35;9;9;
79117;PMS7003;68523;51.336;-0.846;2023-04-06T05:14:04;9;9;
79117;PMS7003;68523;51.336;-0.846;2023-04-06T05:19:34;7;7;
79117;PMS7003;68523;51.336;-0.846;2023-04-06T05:25:04;12;8;
79117;PMS7003;68523;51.336;-0.846;2023-04-06T05:30:34;16;11;
79117;PMS7003;68523;51.336;-0.846;2023-04-06T05:36:04;10;10;
79117;PMS7003;68523;51.336;-0.846;2023-04-06T05:41:34;14;11;
79117;PMS7003;68523;51.336;-0.846;2023-04-06T05:46:37;15;15;
79117;PMS7003;68523;51.336;-0.846;2023-04-06T05:52:01;9;9;
79117;PMS7003;68523;51.336;-0.846;2023-04-06T05:57:04;6;6;
79117;PMS7003;68523;51.336;-0.846;2023-04-06T06:02:33;10;8;
79117;PMS7003;68523;51.336;-0.846;2023-04-06T06:07:36;9;8;
79117;PMS7003;68523;51.336;-0.846;2023-04-06T06:13:00;10;10;
79117;PMS7003;68523;51.336;-0.846;2023-04-06T06:18:03;9;9;
79117;PMS7003;68523;51.336;-0.846;2023-04-06T06:23:33;8;8;
79117;PMS7003;68523;51.336;-0.846;2023-04-06T06:28:36;6;6;
79117;PMS7003;68523;51.336;-0.846;2023-04-06T06:34:00;2;2;
79117;PMS7003;68523;51.336;-0.846;2023-04-06T06:39:03;2;2;
79117;PMS7003;68523;51.336;-0.846;2023-04-06T06:44:33;0;0;
79117;PMS7003;68523;51.336;-0.846;2023-04-06T06:49:36;1;1;
79117;PMS7003;68523;51.336;-0.846;2023-04-06T06:55:05;1;1;
79117;PMS7003;68523;51.336;-0.846;2023-04-06T07:00:36;4;1;
79117;PMS7003;68523;51.336;-0.846;2023-04-06T07:06:05;1;1;
79117;PMS7003;68523;51.336;-0.846;2023-04-06T07:11:35;1;1;
79117;PMS7003;68523;51.336;-0.846;2023-04-06T07:17:04;5;2;
79117;PMS7003;68523;51.336;-0.846;2023-04-06T07:22:34;7;1;
79117;PMS7003;68523;51.336;-0.846;2023-04-06T07:27:37;5;2;
79117;PMS7003;68523;51.336;-0.846;2023-04-06T07:33:01;1;1;
79117;PMS7003;68523;51.336;-0.846;2023-04-06T07:38:04;3;3;
79117;PMS7003;68523;51.336;-0.846;2023-04-06T07:43:34;0;0;
79117;PMS7003;68523;51.336;-0.846;2023-04-06T07:48:37;0;0;
79117;PMS7003;68523;51.336;-0.846;2023-04-06T07:54:01;1;1;
79117;PMS7003;68523;51.336;-0.846;2023-04-06T07:59:04;4;4;
79117;PMS7003;68523;51.336;-0.846;2023-04-06T08:04:34;5;5;
79117;PMS7003;68523;51.336;-0.846;2023-04-06T08:10:04;7;7;
79117;PMS7003;68523;51.336;-0.846;2023-04-06T08:15:34;1;1;
79117;PMS7003;68523;51.336;-0.846;2023-04-06T08:20:37;4;4;
79117;PMS7003;68523;51.336;-0.846;2023-04-06T08:26:01;1;1;
79117;PMS7003;68523;51.336;-0.846;2023-04-06T08:31:04;2;2;
79117;PMS7003;68523;51.336;-0.846;2023-04-06T08:36:34;2;2;
79117;PMS7003;68523;51.336;-0.846;2023-04-06T08:42:04;2;2;
79117;PMS7003;68523;51.336;-0.846;2023-04-06T08:47:34;7;2;
79117;PMS7003;68523;51.336;-0.846;2023-04-06T08:53:04;1;1;
79117;PMS7003;68523;51.336;-0.846;2023-04-06T08:58:36;3;3;
79117;PMS7003;68523;51.336;-0.846;2023-04-06T09:03:37;4;3;
79117;PMS7003;68523;51.336;-0.846;2023-04-06T09:09:02;4;4;
79117;PMS7003;68523;51.336;-0.846;2023-04-06T09:14:05;8;2;
79117;PMS7003;68523;51.336;-0.846;2023-04-06T09:19:45;3;3;
79117;PMS7003;68523;51.336;-0.846;2023-04-06T09:24:41;6;4;
79117;PMS7003;68523;51.336;-0.846;2023-04-06T09:30:03;9;4;
79117;PMS7003;68523;51.336;-0.846;2023-04-06T09:35:06;4;4;
79117;PMS7003;68523;51.336;-0.846;2023-04-06T09:40:05;1;1;
79117;PMS7003;68523;51.336;-0.846;2023-04-06T09:45:36;2;2;
79117;PMS7003;68523;51.336;-0.846;2023-04-06T09:51:05;1;1;
79117;PMS7003;68523;51.336;-0.846;2023-04-06T09:56:35;5;3;
79117;PMS7003;68523;51.336;-0.846;2023-04-06T10:01:35;3;1;
79117;PMS7003;68523;51.336;-0.846;2023-04-06T10:07:05;0;0;
79117;PMS7003;68523;51.336;-0.846;2023-04-06T10:12:36;5;2;
79117;PMS7003;68523;51.336;-0.846;2023-04-06T10:18:02;4;1;
79117;PMS7003;68523;51.336;-0.846;2023-04-06T10:23:33;6;2;
79117;PMS7003;68523;51.336;-0.846;2023-04-06T10:28:34;2;0;
79117;PMS7003;68523;51.336;-0.846;2023-04-06T10:34:04;2;2;
79117;PMS7003;68523;51.336;-0.846;2023-04-06T10:39:34;0;0;
79117;PMS7003;68523;51.336;-0.846;2023-04-06T10:44:41;1;1;
79117;PMS7003;68523;51.336;-0.846;2023-04-06T10:50:01;0;0;
79117;PMS7003;68523;51.336;-0.846;2023-04-06T10:55:04;0;0;
79117;PMS7003;68523;51.336;-0.846;2023-04-06T11:00:35;2;2;
79117;PMS7003;68523;51.336;-0.846;2023-04-06T11:05:35;1;1;
79117;PMS7003;68523;51.336;-0.846;2023-04-06T11:11:05;1;1;
79117;PMS7003;68523;51.336;-0.846;2023-04-06T11:16:36;0;0;
79117;PMS7003;68523;51.336;-0.846;2023-04-06T11:22:06;0;0;
79117;PMS7003;68523;51.336;-0.846;2023-04-06T11:27:04;2;0;
79117;PMS7003;68523;51.336;-0.846;2023-04-06T11:32:39;1;1;
79117;PMS7003;68523;51.336;-0.846;2023-04-06T11:37:37;4;0;
79117;PMS7003;68523;51.336;-0.846;2023-04-06T11:43:01;0;0;
79117;PMS7003;68523;51.336;-0.846;2023-04-06T11:48:33;1;0;
79117;PMS7003;68523;51.336;-0.846;2023-04-06T11:53:43;0;0;
79117;PMS7003;68523;51.336;-0.846;2023-04-06T11:58:35;2;2;
79117;PMS7003;68523;51.336;-0.846;2023-04-06T12:04:05;0;0;
79117;PMS7003;68523;51.336;-0.846;2023-04-06T12:09:34;1;1;
79117;PMS7003;68523;51.336;-0.846;2023-04-06T12:15:04;1;1;
79117;PMS7003;68523;51.336;-0.846;2023-04-06T12:20:35;3;3;
79117;PMS7003;68523;51.336;-0.846;2023-04-06T12:26:05;8;5;
79117;PMS7003;68523;51.336;-0.846;2023-04-06T12:31:34;0;0;
79117;PMS7003;68523;51.336;-0.846;2023-04-06T12:37:05;0;0;
79117;PMS7003;68523;51.336;-0.846;2023-04-06T12:42:35;0;0;
79117;PMS7003;68523;51.336;-0.846;2023-04-06T12:48:05;0;0;
79117;PMS7003;68523;51.336;-0.846;2023-04-06T12:53:35;0;0;
79117;PMS7003;68523;51.336;-0.846;2023-04-06T12:59:04;1;1;
79117;PMS7003;68523;51.336;-0.846;2023-04-06T13:04:34;2;1;
79117;PMS7003;68523;51.336;-0.846;2023-04-06T13:09:37;6;5;
79117;PMS7003;68523;51.336;-0.846;2023-04-06T13:15:02;3;3;
79117;PMS7003;68523;51.336;-0.846;2023-04-06T13:20:05;0;0;
79117;PMS7003;68523;51.336;-0.846;2023-04-06T13:25:36;0;0;
79117;PMS7003;68523;51.336;-0.846;2023-04-06T13:31:01;0;0;
79117;PMS7003;68523;51.336;-0.846;2023-04-06T13:36:05;0;0;
79117;PMS7003;68523;51.336;-0.846;2023-04-06T13:41:35;0;0;
79117;PMS7003;68523;51.336;-0.846;2023-04-06T13:47:05;0;0;
79117;PMS7003;68523;51.336;-0.846;2023-04-06T13:52:35;0;0;
79117;PMS7003;68523;51.336;-0.846;2023-04-06T13:58:04;0;0;
79117;PMS7003;68523;51.336;-0.846;2023-04-06T14:03:33;0;0;
79117;PMS7003;68523;51.336;-0.846;2023-04-06T14:08:37;0;0;
79117;PMS7003;68523;51.336;-0.846;2023-04-06T14:14:01;1;1;
79117;PMS7003;68523;51.336;-0.846;2023-04-06T14:19:04;0;0;
79117;PMS7003;68523;51.336;-0.846;2023-04-06T14:24:05;0;0;
79117;PMS7003;68523;51.336;-0.846;2023-04-06T14:29:35;0;0;
79117;PMS7003;68523;51.336;-0.846;2023-04-06T14:35:04;0;0;
79117;PMS7003;68523;51.336;-0.846;2023-04-06T14:40:34;0;0;
79117;PMS7003;68523;51.336;-0.846;2023-04-06T14:46:04;0;0;
79117;PMS7003;68523;51.336;-0.846;2023-04-06T14:51:34;0;0;
79117;PMS7003;68523;51.336;-0.846;2023-04-06T14:56:37;1;1;
79117;PMS7003;68523;51.336;-0.846;2023-04-06T15:02:02;3;1;
79117;PMS7003;68523;51.336;-0.846;2023-04-06T15:07:32;3;0;
79117;PMS7003;68523;51.336;-0.846;2023-04-06T15:12:35;1;1;
79117;PMS7003;68523;51.336;-0.846;2023-04-06T15:18:05;0;0;
79117;PMS7003;68523;51.336;-0.846;2023-04-06T15:23:34;0;0;
79117;PMS7003;68523;51.336;-0.846;2023-04-06T15:29:04;0;0;
79117;PMS7003;68523;51.336;-0.846;2023-04-06T15:34:33;0;0;
79117;PMS7003;68523;51.336;-0.846;2023-04-06T15:39:36;3;3;
79117;PMS7003;68523;51.336;-0.846;2023-04-06T15:45:01;1;1;
79117;PMS7003;68523;51.336;-0.846;2023-04-06T15:50:04;2;0;
79117;PMS7003;68523;51.336;-0.846;2023-04-06T15:55:34;0;0;
79117;PMS7003;68523;51.336;-0.846;2023-04-06T16:01:10;0;0;
79117;PMS7003;68523;51.336;-0.846;2023-04-06T16:06:36;0;0;
79117;PMS7003;68523;51.336;-0.846;2023-04-06T16:12:00;0;0;
79117;PMS7003;68523;51.336;-0.846;2023-04-06T16:17:03;0;0;
79117;PMS7003;68523;51.336;-0.846;2023-04-06T16:22:33;1;1;
79117;PMS7003;68523;51.336;-0.846;2023-04-06T16:27:36;2;0;
79117;PMS7003;68523;51.336;-0.846;2023-04-06T16:33:05;0;0;
79117;PMS7003;68523;51.336;-0.846;2023-04-06T16:38:35;0;0;
79117;PMS7003;68523;51.336;-0.846;2023-04-06T16:44:05;0;0;
79117;PMS7003;68523;51.336;-0.846;2023-04-06T16:49:34;0;0;
79117;PMS7003;68523;51.336;-0.846;2023-04-06T16:54:37;0;0;
79117;PMS7003;68523;51.336;-0.846;2023-04-06T17:00:01;0;0;
79117;PMS7003;68523;51.336;-0.846;2023-04-06T17:05:05;0;0;
79117;PMS7003;68523;51.336;-0.846;2023-04-06T17:10:34;0;0;
79117;PMS7003;68523;51.336;-0.846;2023-04-06T17:16:04;0;0;
79117;PMS7003;68523;51.336;-0.846;2023-04-06T17:21:34;0;0;
79117;PMS7003;68523;51.336;-0.846;2023-04-06T17:26:37;5;1;
79117;PMS7003;68523;51.336;-0.846;2023-04-06T17:32:01;0;0;
79117;PMS7003;68523;51.336;-0.846;2023-04-06T17:37:04;0;0;
79117;PMS7003;68523;51.336;-0.846;2023-04-06T17:42:33;2;0;
79117;PMS7003;68523;51.336;-0.846;2023-04-06T17:47:36;1;1;
79117;PMS7003;68523;51.336;-0.846;2023-04-06T17:53:01;1;1;
79117;PMS7003;68523;51.336;-0.846;2023-04-06T17:58:03;0;0;
79117;PMS7003;68523;51.336;-0.846;2023-04-06T18:03:33;0;0;
79117;PMS7003;68523;51.336;-0.846;2023-04-06T18:08:36;0;0;
79117;PMS7003;68523;51.336;-0.846;2023-04-06T18:14:04;1;1;
79117;PMS7003;68523;51.336;-0.846;2023-04-06T18:19:02;1;1;
79117;PMS7003;68523;51.336;-0.846;2023-04-06T18:24:05;1;1;
79117;PMS7003;68523;51.336;-0.846;2023-04-06T18:29:35;1;1;
79117;PMS7003;68523;51.336;-0.846;2023-04-06T18:35:05;0;0;
79117;PMS7003;68523;51.336;-0.846;2023-04-06T18:40:36;3;1;
79117;PMS7003;68523;51.336;-0.846;2023-04-06T18:46:01;2;2;
79117;PMS7003;68523;51.336;-0.846;2023-04-06T18:51:04;6;4;
79117;PMS7003;68523;51.336;-0.846;2023-04-06T18:56:33;1;1;
79117;PMS7003;68523;51.336;-0.846;2023-04-06T19:01:36;3;3;
79117;PMS7003;68523;51.336;-0.846;2023-04-06T19:07:01;1;1;
79117;PMS7003;68523;51.336;-0.846;2023-04-06T19:12:03;1;1;
79117;PMS7003;68523;51.336;-0.846;2023-04-06T19:17:32;5;5;
79117;PMS7003;68523;51.336;-0.846;2023-04-06T19:22:36;3;3;
79117;PMS7003;68523;51.336;-0.846;2023-04-06T19:28:01;1;1;
79117;PMS7003;68523;51.336;-0.846;2023-04-06T19:33:04;3;3;
79117;PMS7003;68523;51.336;-0.846;2023-04-06T19:38:34;2;2;
79117;PMS7003;68523;51.336;-0.846;2023-04-06T19:43:33;0;0;
79117;PMS7003;68523;51.336;-0.846;2023-04-06T19:48:36;2;1;
79117;PMS7003;68523;51.336;-0.846;2023-04-06T19:54:00;3;1;
79117;PMS7003;68523;51.336;-0.846;2023-04-06T19:59:03;2;2;
79117;PMS7003;68523;51.336;-0.846;2023-04-06T20:04:32;1;1;
79117;PMS7003;68523;51.336;-0.846;2023-04-06T20:09:35;8;8;
79117;PMS7003;68523;51.336;-0.846;2023-04-06T20:15:05;6;6;
79117;PMS7003;68523;51.336;-0.846;2023-04-06T20:20:35;3;2;
79117;PMS7003;68523;51.336;-0.846;2023-04-06T20:26:07;1;1;
79117;PMS7003;68523;51.336;-0.846;2023-04-06T20:31:36;0;0;
79117;PMS7003;68523;51.336;-0.846;2023-04-06T20:37:00;4;4;
79117;PMS7003;68523;51.336;-0.846;2023-04-06T20:42:04;0;0;
79117;PMS7003;68523;51.336;-0.846;2023-04-06T20:47:33;2;1;
79117;PMS7003;68523;51.336;-0.846;2023-04-06T20:52:36;4;4;
79117;PMS7003;68523;51.336;-0.846;2023-04-06T20:58:01;1;1;
79117;PMS7003;68523;51.336;-0.846;2023-04-06T21:03:03;1;1;
79117;PMS7003;68523;51.336;-0.846;2023-04-06T21:08:32;1;1;
79117;PMS7003;68523;51.336;-0.846;2023-04-06T21:13:35;2;2;
79117;PMS7003;68523;51.336;-0.846;2023-04-06T21:19:05;0;0;
79117;PMS7003;68523;51.336;-0.846;2023-04-06T21:24:34;0;0;
79117;PMS7003;68523;51.336;-0.846;2023-04-06T21:29:37;0;0;
79117;PMS7003;68523;51.336;-0.846;2023-04-06T21:35:01;2;0;
79117;PMS7003;68523;51.336;-0.846;2023-04-06T21:40:04;0;0;
79117;PMS7003;68523;51.336;-0.846;2023-04-06T21:45:35;1;1;
79117;PMS7003;68523;51.336;-0.846;2023-04-06T21:51:04;2;2;
79117;PMS7003;68523;51.336;-0.846;2023-04-06T21:56:34;1;1;
79117;PMS7003;68523;51.336;-0.846;2023-04-06T22:01:37;0;0;
79117;PMS7003;68523;51.336;-0.846;2023-04-06T22:07:01;0;0;
79117;PMS7003;68523;51.336;-0.846;2023-04-06T22:12:04;1;0;
79117;PMS7003;68523;51.336;-0.846;2023-04-06T22:17:33;0;0;
79117;PMS7003;68523;51.336;-0.846;2023-04-06T22:22:36;0;0;
79117;PMS7003;68523;51.336;-0.846;2023-04-06T22:28:01;1;0;
79117;PMS7003;68523;51.336;-0.846;2023-04-06T22:33:04;0;0;
79117;PMS7003;68523;51.336;-0.846;2023-04-06T22:38:33;1;1;
79117;PMS7003;68523;51.336;-0.846;2023-04-06T22:43:36;1;0;
79117;PMS7003;68523;51.336;-0.846;2023-04-06T22:49:05;5;1;
79117;PMS7003;68523;51.336;-0.846;2023-04-06T22:54:34;1;0;
79117;PMS7003;68523;51.336;-0.846;2023-04-06T23:00:04;0;0;
79117;PMS7003;68523;51.336;-0.846;2023-04-06T23:05:34;0;0;
79117;PMS7003;68523;51.336;-0.846;2023-04-06T23:10:37;1;1;
79117;PMS7003;68523;51.336;-0.846;2023-04-06T23:16:02;0;0;
79117;PMS7003;68523;51.336;-0.846;2023-04-06T23:21:05;2;1;
79117;PMS7003;68523;51.336;-0.846;2023-04-06T23:26:35;0;0;
79117;PMS7003;68523;51.336;-0.846;2023-04-06T23:32:05;1;1;
79117;PMS7003;68523;51.336;-0.846;2023-04-06T23:37:33;1;1;
79117;PMS7003;68523;51.336;-0.846;2023-04-06T23:42:36;5;5;
79117;PMS7003;68523;51.336;-0.846;2023-04-06T23:48:00;4;4;
79117;PMS7003;68523;51.336;-0.846;2023-04-06T23:53:03;12;5;
79117;PMS7003;68523;51.336;-0.846;2023-04-06T23:58:32;14;14;
